sensor_id;sensor_type;location;lat;lon;timestamp;P1;durP1;ratioP1;P2;durP2;ratioP2
81036;SDS011;70521;47.468;19.306;2023-08-17T00:00:31;9.88;;;8.98;;
81036;SDS011;70521;47.468;19.306;2023-08-17T00:03:32;9.93;;;8.95;;
81036;SDS011;70521;47.468;19.306;2023-08-17T00:06:33;9.50;;;8.60;;
81036;SDS011;70521;47.468;19.306;2023-08-17T00:09:34;9.40;;;8.60;;
81036;SDS011;70521;47.468;19.306;2023-08-17T00:12:35;9.27;;;8.38;;
81036;SDS011;70521;47.468;19.306;2023-08-17T00:15:36;8.98;;;8.20;;
81036;SDS011;70521;47.468;19.306;2023-08-17T00:18:37;8.68;;;7.60;;
81036;SDS011;70521;47.468;19.306;2023-08-17T00:21:38;7.78;;;7.18;;
81036;SDS011;70521;47.468;19.306;2023-08-17T00:24:39;8.55;;;7.75;;
81036;SDS011;70521;47.468;19.306;2023-08-17T00:27:42;9.23;;;8.32;;
81036;SDS011;70521;47.468;19.306;2023-08-17T00:30:43;9.07;;;7.88;;
81036;SDS011;70521;47.468;19.306;2023-08-17T00:33:44;8.45;;;7.55;;
81036;SDS011;70521;47.468;19.306;2023-08-17T00:36:45;8.23;;;7.43;;
81036;SDS011;70521;47.468;19.306;2023-08-17T00:39:46;8.35;;;7.45;;
81036;SDS011;70521;47.468;19.306;2023-08-17T00:42:47;9.10;;;7.22;;
81036;SDS011;70521;47.468;19.306;2023-08-17T00:45:48;8.80;;;7.95;;
81036;SDS011;70521;47.468;19.306;2023-08-17T00:48:49;8.55;;;7.78;;
81036;SDS011;70521;47.468;19.306;2023-08-17T00:51:50;8.88;;;8.07;;
81036;SDS011;70521;47.468;19.306;2023-08-17T00:54:51;8.25;;;7.40;;
81036;SDS011;70521;47.468;19.306;2023-08-17T00:57:53;8.88;;;7.50;;
81036;SDS011;70521;47.468;19.306;2023-08-17T01:00:54;7.43;;;6.82;;
81036;SDS011;70521;47.468;19.306;2023-08-17T01:03:55;7.47;;;6.72;;
81036;SDS011;70521;47.468;19.306;2023-08-17T01:06:56;8.45;;;7.65;;
81036;SDS011;70521;47.468;19.306;2023-08-17T01:09:57;8.40;;;7.70;;
81036;SDS011;70521;47.468;19.306;2023-08-17T01:13:06;8.00;;;7.40;;
81036;SDS011;70521;47.468;19.306;2023-08-17T01:16:09;7.88;;;6.97;;
81036;SDS011;70521;47.468;19.306;2023-08-17T01:19:12;11.52;;;8.45;;
81036;SDS011;70521;47.468;19.306;2023-08-17T01:22:14;7.85;;;7.10;;
81036;SDS011;70521;47.468;19.306;2023-08-17T01:25:15;8.27;;;7.55;;
81036;SDS011;70521;47.468;19.306;2023-08-17T01:28:17;8.35;;;7.55;;
81036;SDS011;70521;47.468;19.306;2023-08-17T01:31:23;8.10;;;7.35;;
81036;SDS011;70521;47.468;19.306;2023-08-17T01:34:25;8.25;;;7.38;;
81036;SDS011;70521;47.468;19.306;2023-08-17T01:37:29;7.65;;;6.95;;
81036;SDS011;70521;47.468;19.306;2023-08-17T01:40:34;7.63;;;6.93;;
81036;SDS011;70521;47.468;19.306;2023-08-17T01:43:35;7.07;;;6.57;;
81036;SDS011;70521;47.468;19.306;2023-08-17T01:46:36;8.35;;;7.57;;
81036;SDS011;70521;47.468;19.306;2023-08-17T01:49:37;7.90;;;7.20;;
81036;SDS011;70521;47.468;19.306;2023-08-17T01:52:39;7.78;;;7.07;;
81036;SDS011;70521;47.468;19.306;2023-08-17T01:55:40;7.50;;;6.80;;
81036;SDS011;70521;47.468;19.306;2023-08-17T01:58:41;7.38;;;6.70;;
81036;SDS011;70521;47.468;19.306;2023-08-17T02:01:42;7.70;;;6.97;;
81036;SDS011;70521;47.468;19.306;2023-08-17T02:04:43;9.10;;;7.22;;
81036;SDS011;70521;47.468;19.306;2023-08-17T02:07:45;9.38;;;7.25;;
81036;SDS011;70521;47.468;19.306;2023-08-17T02:10:46;7.32;;;6.72;;
81036;SDS011;70521;47.468;19.306;2023-08-17T02:13:47;7.97;;;7.22;;
81036;SDS011;70521;47.468;19.306;2023-08-17T02:16:48;7.47;;;6.88;;
81036;SDS011;70521;47.468;19.306;2023-08-17T02:19:49;6.30;;;5.72;;
81036;SDS011;70521;47.468;19.306;2023-08-17T02:22:51;7.43;;;6.72;;
81036;SDS011;70521;47.468;19.306;2023-08-17T02:25:51;7.28;;;6.60;;
81036;SDS011;70521;47.468;19.306;2023-08-17T02:28:55;7.03;;;6.43;;
81036;SDS011;70521;47.468;19.306;2023-08-17T02:31:58;7.95;;;7.13;;
81036;SDS011;70521;47.468;19.306;2023-08-17T02:35:01;7.80;;;7.00;;
81036;SDS011;70521;47.468;19.306;2023-08-17T02:38:02;8.15;;;6.97;;
81036;SDS011;70521;47.468;19.306;2023-08-17T02:41:03;7.78;;;7.00;;
81036;SDS011;70521;47.468;19.306;2023-08-17T02:44:04;8.15;;;7.28;;
81036;SDS011;70521;47.468;19.306;2023-08-17T02:47:05;7.90;;;7.10;;
81036;SDS011;70521;47.468;19.306;2023-08-17T02:50:06;8.35;;;7.43;;
81036;SDS011;70521;47.468;19.306;2023-08-17T02:53:08;8.50;;;7.70;;
81036;SDS011;70521;47.468;19.306;2023-08-17T02:56:09;8.02;;;7.32;;
81036;SDS011;70521;47.468;19.306;2023-08-17T02:59:12;10.75;;;7.68;;
81036;SDS011;70521;47.468;19.306;2023-08-17T03:02:13;7.95;;;7.20;;
81036;SDS011;70521;47.468;19.306;2023-08-17T03:05:17;7.75;;;7.05;;
81036;SDS011;70521;47.468;19.306;2023-08-17T03:08:18;10.32;;;7.45;;
81036;SDS011;70521;47.468;19.306;2023-08-17T03:11:20;9.15;;;8.35;;
81036;SDS011;70521;47.468;19.306;2023-08-17T03:14:21;8.45;;;7.72;;
81036;SDS011;70521;47.468;19.306;2023-08-17T03:17:22;9.00;;;8.13;;
81036;SDS011;70521;47.468;19.306;2023-08-17T03:20:23;9.02;;;8.10;;
81036;SDS011;70521;47.468;19.306;2023-08-17T03:23:24;10.25;;;8.88;;
81036;SDS011;70521;47.468;19.306;2023-08-17T03:26:26;8.55;;;7.78;;
81036;SDS011;70521;47.468;19.306;2023-08-17T03:29:27;9.32;;;8.32;;
81036;SDS011;70521;47.468;19.306;2023-08-17T03:32:28;9.00;;;8.10;;
81036;SDS011;70521;47.468;19.306;2023-08-17T03:35:29;9.40;;;8.52;;
81036;SDS011;70521;47.468;19.306;2023-08-17T03:38:31;10.32;;;9.43;;
81036;SDS011;70521;47.468;19.306;2023-08-17T03:41:32;10.23;;;9.27;;
81036;SDS011;70521;47.468;19.306;2023-08-17T03:44:33;8.57;;;7.78;;
81036;SDS011;70521;47.468;19.306;2023-08-17T03:47:34;9.18;;;8.27;;
81036;SDS011;70521;47.468;19.306;2023-08-17T03:50:35;8.93;;;8.13;;
81036;SDS011;70521;47.468;19.306;2023-08-17T03:53:36;9.50;;;8.50;;
81036;SDS011;70521;47.468;19.306;2023-08-17T03:56:37;9.52;;;8.65;;
81036;SDS011;70521;47.468;19.306;2023-08-17T03:59:38;9.13;;;8.32;;
81036;SDS011;70521;47.468;19.306;2023-08-17T04:02:39;9.85;;;8.82;;
81036;SDS011;70521;47.468;19.306;2023-08-17T04:05:40;9.48;;;8.57;;
81036;SDS011;70521;47.468;19.306;2023-08-17T04:08:41;10.38;;;8.65;;
81036;SDS011;70521;47.468;19.306;2023-08-17T04:11:42;10.13;;;9.13;;
81036;SDS011;70521;47.468;19.306;2023-08-17T04:14:43;9.65;;;8.65;;
81036;SDS011;70521;47.468;19.306;2023-08-17T04:17:45;8.98;;;8.18;;
81036;SDS011;70521;47.468;19.306;2023-08-17T04:20:46;9.27;;;8.25;;
81036;SDS011;70521;47.468;19.306;2023-08-17T04:23:49;8.52;;;7.68;;
81036;SDS011;70521;47.468;19.306;2023-08-17T04:26:50;8.82;;;8.10;;
81036;SDS011;70521;47.468;19.306;2023-08-17T04:29:51;8.52;;;7.82;;
81036;SDS011;70521;47.468;19.306;2023-08-17T04:32:53;8.45;;;7.65;;
81036;SDS011;70521;47.468;19.306;2023-08-17T04:35:54;9.43;;;8.43;;
81036;SDS011;70521;47.468;19.306;2023-08-17T04:38:56;8.68;;;7.88;;
81036;SDS011;70521;47.468;19.306;2023-08-17T04:41:57;9.10;;;7.75;;
81036;SDS011;70521;47.468;19.306;2023-08-17T04:45:03;8.32;;;7.47;;
81036;SDS011;70521;47.468;19.306;2023-08-17T04:48:06;8.52;;;7.43;;
81036;SDS011;70521;47.468;19.306;2023-08-17T04:51:07;7.47;;;6.80;;
81036;SDS011;70521;47.468;19.306;2023-08-17T04:54:09;8.07;;;7.30;;
81036;SDS011;70521;47.468;19.306;2023-08-17T04:57:10;8.88;;;7.50;;
81036;SDS011;70521;47.468;19.306;2023-08-17T05:00:11;8.02;;;7.32;;
81036;SDS011;70521;47.468;19.306;2023-08-17T05:03:13;8.98;;;8.10;;
81036;SDS011;70521;47.468;19.306;2023-08-17T05:06:17;9.20;;;7.80;;
81036;SDS011;70521;47.468;19.306;2023-08-17T05:09:18;8.18;;;7.47;;
81036;SDS011;70521;47.468;19.306;2023-08-17T05:12:20;7.60;;;6.90;;
81036;SDS011;70521;47.468;19.306;2023-08-17T05:15:21;10.30;;;7.97;;
81036;SDS011;70521;47.468;19.306;2023-08-17T05:18:22;8.35;;;7.55;;
81036;SDS011;70521;47.468;19.306;2023-08-17T05:21:23;8.05;;;7.25;;
81036;SDS011;70521;47.468;19.306;2023-08-17T05:24:24;9.10;;;7.05;;
81036;SDS011;70521;47.468;19.306;2023-08-17T05:27:25;7.28;;;6.65;;
81036;SDS011;70521;47.468;19.306;2023-08-17T05:30:26;8.80;;;8.00;;
81036;SDS011;70521;47.468;19.306;2023-08-17T05:33:28;9.45;;;7.85;;
81036;SDS011;70521;47.468;19.306;2023-08-17T05:36:29;8.90;;;8.00;;
81036;SDS011;70521;47.468;19.306;2023-08-17T05:39:30;8.85;;;7.95;;
81036;SDS011;70521;47.468;19.306;2023-08-17T05:42:31;8.75;;;7.82;;
81036;SDS011;70521;47.468;19.306;2023-08-17T05:45:32;8.20;;;7.38;;
81036;SDS011;70521;47.468;19.306;2023-08-17T05:48:37;8.75;;;7.95;;
81036;SDS011;70521;47.468;19.306;2023-08-17T05:51:38;9.45;;;8.48;;
81036;SDS011;70521;47.468;19.306;2023-08-17T05:54:39;9.30;;;8.50;;
81036;SDS011;70521;47.468;19.306;2023-08-17T05:57:40;8.75;;;7.78;;
81036;SDS011;70521;47.468;19.306;2023-08-17T06:00:41;9.32;;;8.43;;
81036;SDS011;70521;47.468;19.306;2023-08-17T06:03:42;10.20;;;8.25;;
81036;SDS011;70521;47.468;19.306;2023-08-17T06:06:43;9.02;;;8.15;;
81036;SDS011;70521;47.468;19.306;2023-08-17T06:09:44;9.68;;;8.75;;
81036;SDS011;70521;47.468;19.306;2023-08-17T06:12:46;8.23;;;7.47;;
81036;SDS011;70521;47.468;19.306;2023-08-17T06:15:47;9.48;;;8.68;;
81036;SDS011;70521;47.468;19.306;2023-08-17T06:18:48;9.55;;;8.65;;
81036;SDS011;70521;47.468;19.306;2023-08-17T06:21:48;8.63;;;7.80;;
81036;SDS011;70521;47.468;19.306;2023-08-17T06:24:49;8.32;;;7.53;;
81036;SDS011;70521;47.468;19.306;2023-08-17T06:27:51;8.63;;;7.78;;
81036;SDS011;70521;47.468;19.306;2023-08-17T06:30:52;8.68;;;7.88;;
81036;SDS011;70521;47.468;19.306;2023-08-17T06:33:54;8.27;;;7.57;;
81036;SDS011;70521;47.468;19.306;2023-08-17T06:36:59;8.50;;;7.70;;
81036;SDS011;70521;47.468;19.306;2023-08-17T06:40:00;9.10;;;8.20;;
81036;SDS011;70521;47.468;19.306;2023-08-17T06:43:01;8.85;;;8.05;;
81036;SDS011;70521;47.468;19.306;2023-08-17T06:46:02;8.48;;;7.75;;
81036;SDS011;70521;47.468;19.306;2023-08-17T06:49:03;7.22;;;6.63;;
81036;SDS011;70521;47.468;19.306;2023-08-17T06:52:04;7.82;;;7.03;;
81036;SDS011;70521;47.468;19.306;2023-08-17T06:55:05;7.97;;;7.28;;
81036;SDS011;70521;47.468;19.306;2023-08-17T06:58:06;7.53;;;6.47;;
81036;SDS011;70521;47.468;19.306;2023-08-17T07:01:07;7.35;;;6.65;;
81036;SDS011;70521;47.468;19.306;2023-08-17T07:04:08;7.38;;;6.55;;
81036;SDS011;70521;47.468;19.306;2023-08-17T07:07:09;7.13;;;6.47;;
81036;SDS011;70521;47.468;19.306;2023-08-17T07:10:11;7.50;;;6.80;;
81036;SDS011;70521;47.468;19.306;2023-08-17T07:13:13;8.13;;;6.50;;
81036;SDS011;70521;47.468;19.306;2023-08-17T07:16:14;7.63;;;6.93;;
81036;SDS011;70521;47.468;19.306;2023-08-17T07:19:15;6.30;;;5.68;;
81036;SDS011;70521;47.468;19.306;2023-08-17T07:22:16;7.70;;;7.10;;
81036;SDS011;70521;47.468;19.306;2023-08-17T07:25:17;6.07;;;5.57;;
81036;SDS011;70521;47.468;19.306;2023-08-17T07:28:18;6.43;;;5.82;;
81036;SDS011;70521;47.468;19.306;2023-08-17T07:31:19;6.70;;;6.15;;
81036;SDS011;70521;47.468;19.306;2023-08-17T07:34:20;6.47;;;5.88;;
81036;SDS011;70521;47.468;19.306;2023-08-17T07:37:21;6.75;;;5.60;;
81036;SDS011;70521;47.468;19.306;2023-08-17T07:40:22;5.70;;;5.20;;
81036;SDS011;70521;47.468;19.306;2023-08-17T07:43:23;5.25;;;4.75;;
81036;SDS011;70521;47.468;19.306;2023-08-17T07:46:24;6.22;;;5.60;;
81036;SDS011;70521;47.468;19.306;2023-08-17T07:49:25;4.95;;;4.55;;
81036;SDS011;70521;47.468;19.306;2023-08-17T07:52:28;5.80;;;5.30;;
81036;SDS011;70521;47.468;19.306;2023-08-17T07:55:29;5.10;;;4.60;;
81036;SDS011;70521;47.468;19.306;2023-08-17T07:58:30;5.13;;;4.68;;
81036;SDS011;70521;47.468;19.306;2023-08-17T08:01:31;4.97;;;4.47;;
81036;SDS011;70521;47.468;19.306;2023-08-17T08:04:32;5.20;;;4.75;;
81036;SDS011;70521;47.468;19.306;2023-08-17T08:07:33;4.70;;;4.30;;
81036;SDS011;70521;47.468;19.306;2023-08-17T08:10:34;5.00;;;4.60;;
81036;SDS011;70521;47.468;19.306;2023-08-17T08:13:35;5.03;;;4.53;;
81036;SDS011;70521;47.468;19.306;2023-08-17T08:16:36;5.13;;;4.63;;
81036;SDS011;70521;47.468;19.306;2023-08-17T08:19:37;4.40;;;4.10;;
81036;SDS011;70521;47.468;19.306;2023-08-17T08:22:38;4.25;;;3.88;;
81036;SDS011;70521;47.468;19.306;2023-08-17T08:25:39;4.85;;;4.32;;
81036;SDS011;70521;47.468;19.306;2023-08-17T08:28:40;3.53;;;3.22;;
81036;SDS011;70521;47.468;19.306;2023-08-17T08:31:41;4.50;;;3.95;;
81036;SDS011;70521;47.468;19.306;2023-08-17T08:34:42;4.25;;;3.85;;
81036;SDS011;70521;47.468;19.306;2023-08-17T08:37:43;4.38;;;3.97;;
81036;SDS011;70521;47.468;19.306;2023-08-17T08:40:44;3.90;;;3.58;;
81036;SDS011;70521;47.468;19.306;2023-08-17T08:43:47;4.28;;;3.88;;
81036;SDS011;70521;47.468;19.306;2023-08-17T08:46:48;4.90;;;3.60;;
81036;SDS011;70521;47.468;19.306;2023-08-17T08:49:52;5.18;;;3.92;;
81036;SDS011;70521;47.468;19.306;2023-08-17T08:53:01;4.47;;;4.07;;
81036;SDS011;70521;47.468;19.306;2023-08-17T08:56:04;5.28;;;4.30;;
81036;SDS011;70521;47.468;19.306;2023-08-17T08:59:07;5.57;;;4.55;;
81036;SDS011;70521;47.468;19.306;2023-08-17T09:02:11;4.95;;;4.25;;
81036;SDS011;70521;47.468;19.306;2023-08-17T09:05:12;5.93;;;4.70;;
81036;SDS011;70521;47.468;19.306;2023-08-17T09:08:15;4.88;;;4.25;;
81036;SDS011;70521;47.468;19.306;2023-08-17T09:11:16;5.10;;;4.63;;
81036;SDS011;70521;47.468;19.306;2023-08-17T09:14:17;4.95;;;4.40;;
81036;SDS011;70521;47.468;19.306;2023-08-17T09:17:24;5.00;;;4.10;;
81036;SDS011;70521;47.468;19.306;2023-08-17T09:20:35;4.60;;;4.30;;
81036;SDS011;70521;47.468;19.306;2023-08-17T09:23:38;6.70;;;4.88;;
81036;SDS011;70521;47.468;19.306;2023-08-17T09:26:40;4.50;;;4.10;;
81036;SDS011;70521;47.468;19.306;2023-08-17T09:29:42;3.90;;;3.50;;
81036;SDS011;70521;47.468;19.306;2023-08-17T09:32:43;4.00;;;3.70;;
81036;SDS011;70521;47.468;19.306;2023-08-17T09:35:44;5.40;;;4.97;;
81036;SDS011;70521;47.468;19.306;2023-08-17T09:38:45;5.40;;;4.93;;
81036;SDS011;70521;47.468;19.306;2023-08-17T09:41:48;4.32;;;3.47;;
81036;SDS011;70521;47.468;19.306;2023-08-17T09:44:49;4.45;;;4.05;;
81036;SDS011;70521;47.468;19.306;2023-08-17T09:47:50;4.32;;;3.90;;
81036;SDS011;70521;47.468;19.306;2023-08-17T09:50:51;3.97;;;3.67;;
81036;SDS011;70521;47.468;19.306;2023-08-17T09:53:52;3.95;;;3.55;;
81036;SDS011;70521;47.468;19.306;2023-08-17T09:56:53;5.07;;;3.50;;
81036;SDS011;70521;47.468;19.306;2023-08-17T09:59:54;4.45;;;3.90;;
81036;SDS011;70521;47.468;19.306;2023-08-17T10:02:56;5.40;;;4.28;;
81036;SDS011;70521;47.468;19.306;2023-08-17T10:05:59;4.45;;;4.00;;
81036;SDS011;70521;47.468;19.306;2023-08-17T10:09:02;4.10;;;3.70;;
81036;SDS011;70521;47.468;19.306;2023-08-17T10:12:05;4.68;;;4.22;;
81036;SDS011;70521;47.468;19.306;2023-08-17T10:15:07;4.00;;;3.70;;
81036;SDS011;70521;47.468;19.306;2023-08-17T10:18:12;4.15;;;3.47;;
81036;SDS011;70521;47.468;19.306;2023-08-17T10:21:37;4.35;;;3.95;;
81036;SDS011;70521;47.468;19.306;2023-08-17T10:24:37;6.65;;;4.25;;
81036;SDS011;70521;47.468;19.306;2023-08-17T10:27:42;4.30;;;3.90;;
81036;SDS011;70521;47.468;19.306;2023-08-17T10:30:43;4.00;;;3.60;;
81036;SDS011;70521;47.468;19.306;2023-08-17T10:33:44;3.88;;;3.58;;
81036;SDS011;70521;47.468;19.306;2023-08-17T10:36:48;4.38;;;3.65;;
81036;SDS011;70521;47.468;19.306;2023-08-17T10:39:50;4.15;;;3.75;;
81036;SDS011;70521;47.468;19.306;2023-08-17T10:42:53;4.25;;;3.85;;
81036;SDS011;70521;47.468;19.306;2023-08-17T10:45:54;3.88;;;3.55;;
81036;SDS011;70521;47.468;19.306;2023-08-17T10:48:55;4.47;;;3.63;;
81036;SDS011;70521;47.468;19.306;2023-08-17T10:52:05;4.32;;;3.92;;
81036;SDS011;70521;47.468;19.306;2023-08-17T10:55:07;4.28;;;3.88;;
81036;SDS011;70521;47.468;19.306;2023-08-17T10:58:12;4.13;;;3.83;;
81036;SDS011;70521;47.468;19.306;2023-08-17T11:01:13;4.30;;;3.90;;
81036;SDS011;70521;47.468;19.306;2023-08-17T11:04:17;4.15;;;3.83;;
81036;SDS011;70521;47.468;19.306;2023-08-17T11:07:18;4.53;;;4.13;;
81036;SDS011;70521;47.468;19.306;2023-08-17T11:13:20;4.80;;;4.40;;
81036;SDS011;70521;47.468;19.306;2023-08-17T11:16:21;4.22;;;3.80;;
81036;SDS011;70521;47.468;19.306;2023-08-17T11:19:23;4.18;;;3.78;;
81036;SDS011;70521;47.468;19.306;2023-08-17T11:22:24;4.10;;;3.80;;
81036;SDS011;70521;47.468;19.306;2023-08-17T11:25:28;3.90;;;3.60;;
81036;SDS011;70521;47.468;19.306;2023-08-17T11:28:29;4.22;;;3.17;;
81036;SDS011;70521;47.468;19.306;2023-08-17T11:31:34;4.53;;;4.13;;
81036;SDS011;70521;47.468;19.306;2023-08-17T11:34:35;4.25;;;3.80;;
81036;SDS011;70521;47.468;19.306;2023-08-17T11:37:36;3.95;;;3.58;;
81036;SDS011;70521;47.468;19.306;2023-08-17T11:40:37;4.53;;;3.65;;
81036;SDS011;70521;47.468;19.306;2023-08-17T11:43:38;4.20;;;3.53;;
81036;SDS011;70521;47.468;19.306;2023-08-17T11:46:39;3.97;;;3.55;;
81036;SDS011;70521;47.468;19.306;2023-08-17T11:49:40;3.65;;;3.35;;
81036;SDS011;70521;47.468;19.306;2023-08-17T11:52:41;5.22;;;3.85;;
81036;SDS011;70521;47.468;19.306;2023-08-17T11:55:42;3.55;;;3.20;;
81036;SDS011;70521;47.468;19.306;2023-08-17T11:58:45;3.45;;;3.15;;
81036;SDS011;70521;47.468;19.306;2023-08-17T12:01:46;3.50;;;3.20;;
81036;SDS011;70521;47.468;19.306;2023-08-17T12:04:49;6.07;;;3.80;;
81036;SDS011;70521;47.468;19.306;2023-08-17T12:07:50;3.80;;;3.50;;
81036;SDS011;70521;47.468;19.306;2023-08-17T12:10:53;3.80;;;3.40;;
81036;SDS011;70521;47.468;19.306;2023-08-17T12:13:54;3.75;;;3.45;;
81036;SDS011;70521;47.468;19.306;2023-08-17T12:16:55;4.63;;;3.50;;
81036;SDS011;70521;47.468;19.306;2023-08-17T12:19:58;4.80;;;3.92;;
81036;SDS011;70521;47.468;19.306;2023-08-17T12:22:59;3.78;;;3.47;;
81036;SDS011;70521;47.468;19.306;2023-08-17T12:26:00;4.10;;;3.40;;
81036;SDS011;70521;47.468;19.306;2023-08-17T12:29:04;4.00;;;3.60;;
81036;SDS011;70521;47.468;19.306;2023-08-17T12:32:05;3.90;;;3.58;;
81036;SDS011;70521;47.468;19.306;2023-08-17T12:35:08;4.10;;;3.60;;
81036;SDS011;70521;47.468;19.306;2023-08-17T12:38:09;4.28;;;3.88;;
81036;SDS011;70521;47.468;19.306;2023-08-17T12:41:10;4.38;;;3.80;;
81036;SDS011;70521;47.468;19.306;2023-08-17T12:44:11;4.82;;;4.43;;
81036;SDS011;70521;47.468;19.306;2023-08-17T12:47:15;4.35;;;3.95;;
81036;SDS011;70521;47.468;19.306;2023-08-17T12:50:16;3.95;;;3.65;;
81036;SDS011;70521;47.468;19.306;2023-08-17T12:53:17;5.45;;;3.75;;
81036;SDS011;70521;47.468;19.306;2023-08-17T12:56:18;3.92;;;3.63;;
81036;SDS011;70521;47.468;19.306;2023-08-17T12:59:19;3.85;;;3.40;;
81036;SDS011;70521;47.468;19.306;2023-08-17T13:02:20;4.53;;;3.97;;
81036;SDS011;70521;47.468;19.306;2023-08-17T13:05:22;3.83;;;3.53;;
81036;SDS011;70521;47.468;19.306;2023-08-17T13:08:23;3.58;;;3.28;;
81036;SDS011;70521;47.468;19.306;2023-08-17T13:11:24;5.70;;;4.10;;
81036;SDS011;70521;47.468;19.306;2023-08-17T13:14:25;5.10;;;4.40;;
81036;SDS011;70521;47.468;19.306;2023-08-17T13:17:26;7.57;;;4.40;;
81036;SDS011;70521;47.468;19.306;2023-08-17T13:20:27;4.72;;;4.20;;
81036;SDS011;70521;47.468;19.306;2023-08-17T13:23:28;6.57;;;4.65;;
81036;SDS011;70521;47.468;19.306;2023-08-17T13:26:29;4.85;;;4.45;;
81036;SDS011;70521;47.468;19.306;2023-08-17T13:29:31;4.93;;;4.50;;
81036;SDS011;70521;47.468;19.306;2023-08-17T13:32:32;5.53;;;4.60;;
81036;SDS011;70521;47.468;19.306;2023-08-17T13:35:33;6.00;;;5.03;;
81036;SDS011;70521;47.468;19.306;2023-08-17T13:38:34;5.85;;;5.28;;
81036;SDS011;70521;47.468;19.306;2023-08-17T13:41:35;5.80;;;4.93;;
81036;SDS011;70521;47.468;19.306;2023-08-17T13:44:36;6.60;;;4.93;;
81036;SDS011;70521;47.468;19.306;2023-08-17T13:47:37;9.05;;;5.32;;
81036;SDS011;70521;47.468;19.306;2023-08-17T13:50:38;5.72;;;5.28;;
81036;SDS011;70521;47.468;19.306;2023-08-17T13:53:40;5.03;;;4.45;;
81036;SDS011;70521;47.468;19.306;2023-08-17T13:56:41;5.20;;;4.70;;
81036;SDS011;70521;47.468;19.306;2023-08-17T13:59:42;5.20;;;4.15;;
81036;SDS011;70521;47.468;19.306;2023-08-17T14:02:43;4.95;;;4.55;;
81036;SDS011;70521;47.468;19.306;2023-08-17T14:05:44;4.65;;;4.13;;
81036;SDS011;70521;47.468;19.306;2023-08-17T14:08:45;4.80;;;4.40;;
81036;SDS011;70521;47.468;19.306;2023-08-17T14:11:46;5.00;;;4.40;;
81036;SDS011;70521;47.468;19.306;2023-08-17T14:14:47;5.45;;;4.32;;
81036;SDS011;70521;47.468;19.306;2023-08-17T14:17:48;4.50;;;4.07;;
81036;SDS011;70521;47.468;19.306;2023-08-17T14:20:49;4.32;;;3.92;;
81036;SDS011;70521;47.468;19.306;2023-08-17T14:23:50;4.45;;;3.92;;
81036;SDS011;70521;47.468;19.306;2023-08-17T14:26:51;4.75;;;4.30;;
81036;SDS011;70521;47.468;19.306;2023-08-17T14:29:52;4.00;;;3.70;;
81036;SDS011;70521;47.468;19.306;2023-08-17T14:32:53;4.40;;;4.00;;
81036;SDS011;70521;47.468;19.306;2023-08-17T14:35:54;4.20;;;3.83;;
81036;SDS011;70521;47.468;19.306;2023-08-17T14:38:55;6.28;;;4.25;;
81036;SDS011;70521;47.468;19.306;2023-08-17T14:41:56;4.40;;;4.00;;
81036;SDS011;70521;47.468;19.306;2023-08-17T14:44:57;5.25;;;4.50;;
81036;SDS011;70521;47.468;19.306;2023-08-17T14:47:58;4.82;;;4.38;;
81036;SDS011;70521;47.468;19.306;2023-08-17T14:50:59;6.13;;;5.40;;
81036;SDS011;70521;47.468;19.306;2023-08-17T14:54:01;4.90;;;4.47;;
81036;SDS011;70521;47.468;19.306;2023-08-17T14:57:02;5.82;;;4.88;;
81036;SDS011;70521;47.468;19.306;2023-08-17T15:00:03;5.00;;;4.60;;
81036;SDS011;70521;47.468;19.306;2023-08-17T15:03:04;5.53;;;4.95;;
81036;SDS011;70521;47.468;19.306;2023-08-17T15:06:06;4.88;;;4.38;;
81036;SDS011;70521;47.468;19.306;2023-08-17T15:09:07;4.63;;;4.32;;
81036;SDS011;70521;47.468;19.306;2023-08-17T15:12:08;5.43;;;4.93;;
81036;SDS011;70521;47.468;19.306;2023-08-17T15:15:09;4.93;;;4.53;;
81036;SDS011;70521;47.468;19.306;2023-08-17T15:18:10;5.22;;;4.72;;
81036;SDS011;70521;47.468;19.306;2023-08-17T15:21:11;4.88;;;4.47;;
81036;SDS011;70521;47.468;19.306;2023-08-17T15:24:12;4.88;;;4.47;;
81036;SDS011;70521;47.468;19.306;2023-08-17T15:27:20;5.68;;;5.18;;
81036;SDS011;70521;47.468;19.306;2023-08-17T15:30:21;5.13;;;4.72;;
81036;SDS011;70521;47.468;19.306;2023-08-17T15:33:22;5.50;;;5.00;;
81036;SDS011;70521;47.468;19.306;2023-08-17T15:36:23;5.05;;;4.55;;
81036;SDS011;70521;47.468;19.306;2023-08-17T15:39:27;5.65;;;5.15;;
81036;SDS011;70521;47.468;19.306;2023-08-17T15:42:28;5.45;;;4.95;;
81036;SDS011;70521;47.468;19.306;2023-08-17T15:45:29;5.68;;;4.63;;
81036;SDS011;70521;47.468;19.306;2023-08-17T15:48:30;6.18;;;5.57;;
81036;SDS011;70521;47.468;19.306;2023-08-17T15:51:31;5.93;;;5.30;;
81036;SDS011;70521;47.468;19.306;2023-08-17T15:54:32;6.55;;;5.95;;
81036;SDS011;70521;47.468;19.306;2023-08-17T15:57:33;6.35;;;5.75;;
81036;SDS011;70521;47.468;19.306;2023-08-17T16:00:35;7.47;;;6.30;;
81036;SDS011;70521;47.468;19.306;2023-08-17T16:03:36;6.40;;;5.80;;
81036;SDS011;70521;47.468;19.306;2023-08-17T16:06:37;6.93;;;6.22;;
81036;SDS011;70521;47.468;19.306;2023-08-17T16:09:43;6.57;;;5.63;;
81036;SDS011;70521;47.468;19.306;2023-08-17T16:12:44;6.00;;;5.43;;
81036;SDS011;70521;47.468;19.306;2023-08-17T16:15:45;6.82;;;5.88;;
81036;SDS011;70521;47.468;19.306;2023-08-17T16:18:46;6.70;;;6.03;;
81036;SDS011;70521;47.468;19.306;2023-08-17T16:21:47;6.38;;;5.72;;
81036;SDS011;70521;47.468;19.306;2023-08-17T16:24:48;6.13;;;5.53;;
81036;SDS011;70521;47.468;19.306;2023-08-17T16:27:49;6.07;;;5.57;;
81036;SDS011;70521;47.468;19.306;2023-08-17T16:30:50;5.78;;;5.25;;
81036;SDS011;70521;47.468;19.306;2023-08-17T16:33:51;7.03;;;6.03;;
81036;SDS011;70521;47.468;19.306;2023-08-17T16:36:52;6.93;;;6.18;;
81036;SDS011;70521;47.468;19.306;2023-08-17T16:39:53;6.55;;;5.93;;
81036;SDS011;70521;47.468;19.306;2023-08-17T16:42:53;6.90;;;6.25;;
81036;SDS011;70521;47.468;19.306;2023-08-17T16:45:54;6.80;;;6.20;;
81036;SDS011;70521;47.468;19.306;2023-08-17T16:48:55;6.90;;;6.30;;
81036;SDS011;70521;47.468;19.306;2023-08-17T16:51:58;6.80;;;5.47;;
81036;SDS011;70521;47.468;19.306;2023-08-17T16:54:59;7.53;;;5.75;;
81036;SDS011;70521;47.468;19.306;2023-08-17T16:58:00;6.97;;;5.38;;
81036;SDS011;70521;47.468;19.306;2023-08-17T17:01:01;6.30;;;5.65;;
81036;SDS011;70521;47.468;19.306;2023-08-17T17:04:05;6.40;;;5.68;;
81036;SDS011;70521;47.468;19.306;2023-08-17T17:07:06;7.85;;;6.20;;
81036;SDS011;70521;47.468;19.306;2023-08-17T17:10:07;8.55;;;7.63;;
81036;SDS011;70521;47.468;19.306;2023-08-17T17:13:08;7.60;;;6.80;;
81036;SDS011;70521;47.468;19.306;2023-08-17T17:16:09;6.82;;;6.22;;
81036;SDS011;70521;47.468;19.306;2023-08-17T17:19:10;6.53;;;5.95;;
81036;SDS011;70521;47.468;19.306;2023-08-17T17:22:11;7.40;;;6.70;;
81036;SDS011;70521;47.468;19.306;2023-08-17T17:25:12;6.95;;;6.07;;
81036;SDS011;70521;47.468;19.306;2023-08-17T17:28:13;7.30;;;6.57;;
81036;SDS011;70521;47.468;19.306;2023-08-17T17:31:14;9.13;;;6.95;;
81036;SDS011;70521;47.468;19.306;2023-08-17T17:34:15;6.93;;;6.30;;
81036;SDS011;70521;47.468;19.306;2023-08-17T17:37:16;11.18;;;6.40;;
81036;SDS011;70521;47.468;19.306;2023-08-17T17:40:18;7.90;;;7.10;;
81036;SDS011;70521;47.468;19.306;2023-08-17T17:43:19;7.82;;;7.05;;
81036;SDS011;70521;47.468;19.306;2023-08-17T17:46:20;7.63;;;6.88;;
81036;SDS011;70521;47.468;19.306;2023-08-17T17:49:21;7.40;;;6.57;;
81036;SDS011;70521;47.468;19.306;2023-08-17T17:52:22;7.95;;;7.22;;
81036;SDS011;70521;47.468;19.306;2023-08-17T17:55:27;8.45;;;7.65;;
81036;SDS011;70521;47.468;19.306;2023-08-17T17:58:28;7.90;;;7.20;;